CheckWX is a tool to help pilots better visualize weather data.  It is not intended as a substitute for an official pre-flight weather briefing.

12:20:15 UTC

EFKK METAR
Kruunupyy Airport
Kokkola / Kruunupyy, Finland
Current

30 mins ago

EFKK 181150Z 16014KT 9999 -SHSN OVC007 M00/M02 Q1004
Observed
Feb-18 @ 11:50 UTC
Wind
  • 160° at 14 KTS
Visibility
10,000+ meters
Flight Rules
IFR
Conditions
Light Snow
Cloud Levels
  • Overcast at 700' AGL
Temperature
C / 32°F
Dewpoint
-2°C / 28°F
Humidity
87%
Altimeter
29.65" Hg
Pressure
1003.92 hPa
Previous

60 mins ago

EFKK 181120Z 16014KT 9999 -FZDZSN OVC008 M00/M02 Q1005
Observed
Feb-18 @ 11:20 UTC
Wind
  • 160° at 14 KTS
Visibility
10,000+ meters
Flight Rules
IFR
Conditions
Light Freezing Light Drizzle, Snow
Cloud Levels
  • Overcast at 800' AGL
Temperature
C / 32°F
Dewpoint
-2°C / 28°F
Humidity
87%
Altimeter
29.68" Hg
Pressure
1004.92 hPa
Previous

2 hours ago

EFKK 181050Z 16017KT 9999 OVC009 M01/M03 Q1006
Observed
Feb-18 @ 10:50 UTC
Wind
  • 160° at 17 KTS
Visibility
10,000+ meters
Flight Rules
IFR
Cloud Levels
  • Overcast at 900' AGL
Temperature
-1°C / 30°F
Dewpoint
-3°C / 27°F
Humidity
86%
Altimeter
29.7" Hg
Pressure
1005.92 hPa